SCVD

Details ICAO SCVD (ZAL)
Name Pichoy
Region Chile
Timezone America/Santiago (UTC-3.0)
Plans Departing 4
Arriving 5
Stats Elevation 59 ft / 18 m (AMSL)
Location -39.649955° -73.086111°
Runways 1
Magnetic Variation 7.451° E
Sunrise 2017-12-16 09:20:37 UTC / 2017-12-16 06:20:37 Local
Sunset 2017-12-17 00:18:18 UTC / 2017-12-16 21:18:18 Local
Advertisement - Login to hide

Runways

ID Width Length Bearing (true) Bearing (mag) Surface Threshold Offset Overrun Length
17 148 ft / 45 m 6,876 ft / 2,096 m 178.00° 170.55° Asphalt 0 ft / 0 m 240 ft / 73 m
35 148 ft / 45 m 6,876 ft / 2,096 m 358.00° 350.55° Asphalt 0 ft / 0 m 374 ft / 114 m

Map

Weather


0- 5 10 15 20 25 30 35+ Temperature / ° C

Clouds and Precipitation
Forecast for 2017-12-17 06:00 UTC. Updated 2 hours ago

Ground ~20,000 ft ~40,000 ft Winds

METAR

SCVD 170200Z AUTO 25004KT 230V290 CAVOK 10/06 Q1021

TAF

Not found

Frequencies

Tower 127.70 MHz AFIS
Warning: Do not use this data for real-world aviation or navigation. No guarantee of current accuracy is given.